Time;durP1;ratioP1;P1;durP2;ratioP2;P2;SDS_P1;SDS_P2;PMS_P1;PMS_P2;Temp;Humidity;BMP_temperature;BMP_pressure;BME280_temperature;BME280_humidity;BME280_pressure;Samples;Min_cycle;Max_cycle;Signal;HPM_P1;HPM_P2
2022/06/14 00:03:44;;;;;;;9.05;1.85;;;;;;;9.36;86.75;101641.34;6030061;28;20486;-67
2022/06/14 00:06:39;;;;;;;3.83;1.55;;;;;;;9.45;86.31;101639.81;6028140;28;20465;-67
2022/06/14 00:09:35;;;;;;;5.43;1.73;;;;;;;9.38;86.44;101647.38;6029860;28;20038;-67
2022/06/14 00:12:30;;;;;;;6.07;1.90;;;;;;;8.88;86.30;101650.28;6028798;28;20034;-67
2022/06/14 00:15:25;;;;;;;4.67;1.50;;;;;;;8.78;87.13;101665.97;6028878;28;20641;-67
2022/06/14 00:18:21;;;;;;;7.20;1.58;;;;;;;8.55;88.06;101656.22;6028489;28;20046;-66
2022/06/14 00:21:17;;;;;;;4.47;1.77;;;;;;;8.37;88.89;101655.72;6022375;28;20138;-67
2022/06/14 00:24:13;;;;;;;5.50;1.55;;;;;;;8.66;89.91;101655.44;6027305;28;20266;-66
2022/06/14 00:27:08;;;;;;;2.50;1.50;;;;;;;8.80;90.46;101658.78;6024158;28;20035;-67
2022/06/14 00:30:04;;;;;;;3.53;1.90;;;;;;;9.18;89.21;101652.47;6024435;28;20096;-67
2022/06/14 00:33:00;;;;;;;3.72;1.40;;;;;;;8.92;88.43;101646.44;6024000;28;20046;-67
2022/06/14 00:36:00;;;;;;;4.32;1.70;;;;;;;8.94;89.05;101648.03;6029352;28;20061;-67
2022/06/14 00:38:58;;;;;;;3.13;1.58;;;;;;;8.62;88.39;101653.97;6026352;28;20431;-66
2022/06/14 00:41:55;;;;;;;3.67;1.58;;;;;;;8.40;88.77;101653.84;6022243;28;20081;-66
2022/06/14 00:45:19;;;;;;;5.60;1.90;;;;;;;9.16;91.42;101652.56;6025784;28;20061;-67
2022/06/14 00:48:24;;;;;;;5.25;1.48;;;;;;;9.42;89.14;101651.50;5999623;28;20569;-67
2022/06/14 00:51:23;;;;;;;4.95;1.40;;;;;;;9.29;87.68;101656.03;6025648;28;20038;-66
2022/06/14 00:54:30;;;;;;;4.40;1.50;;;;;;;8.74;87.38;101656.59;6027425;28;20030;-67
2022/06/14 00:57:40;;;;;;;6.10;1.60;;;;;;;8.44;88.58;101655.28;6025494;28;20038;-67
2022/06/14 01:00:41;;;;;;;10.18;2.58;;;;;;;8.35;88.97;101665.56;6021215;28;20034;-66
2022/06/14 01:03:42;;;;;;;6.82;1.63;;;;;;;8.43;90.82;101665.00;6032147;28;20129;-67
2022/06/14 01:06:52;;;;;;;;;;;;;;;8.61;90.35;101668.16;6033610;28;20156;-67
2022/06/14 01:09:50;;;;;;;4.32;1.75;;;;;;;8.84;89.66;101659.38;6027956;28;19956;-67
2022/06/14 01:12:48;;;;;;;5.22;1.52;;;;;;;9.39;90.31;101650.88;6042311;28;20386;-67
2022/06/14 01:15:44;;;;;;;6.68;2.10;;;;;;;9.43;89.45;101650.50;6024962;28;20034;-67
2022/06/14 01:18:40;;;;;;;9.05;1.73;;;;;;;9.56;88.21;101642.50;6030882;28;20516;-67
2022/06/14 01:21:35;;;;;;;6.63;1.70;;;;;;;8.99;86.24;101648.53;6026069;28;20482;-67
2022/06/14 01:24:31;;;;;;;6.20;1.80;;;;;;;8.72;86.89;101645.28;6028190;28;20034;-66
2022/06/14 01:27:27;;;;;;;3.50;1.90;;;;;;;8.49;87.14;101648.72;6018420;28;20158;-67
2022/06/14 01:30:27;;;;;;;4.97;1.45;;;;;;;8.71;88.27;101653.31;6025460;28;20482;-67
2022/06/14 01:33:43;;;;;;;3.72;1.58;;;;;;;8.35;88.48;101636.50;6024477;28;20035;-67
2022/06/14 01:36:39;;;;;;;7.75;1.90;;;;;;;8.56;88.14;101639.38;6033353;28;20038;-66
2022/06/14 01:39:36;;;;;;;6.03;2.03;;;;;;;8.31;88.08;101647.41;6027410;28;20429;-67
2022/06/14 01:43:04;;;;;;;3.80;1.58;;;;;;;8.16;88.67;101659.84;6021984;28;20038;-67
2022/06/14 01:46:06;;;;;;;5.32;1.60;;;;;;;8.83;90.39;101647.16;6027886;28;20072;-66
2022/06/14 01:53:07;;;;;;;5.88;2.05;;;;;;;8.53;89.06;101667.84;6024784;28;20074;-67
2022/06/14 01:56:11;;;;;;;5.28;1.73;;;;;;;9.27;89.41;101654.41;6022023;28;20156;-67
2022/06/14 01:59:37;;;;;;;6.13;1.83;;;;;;;9.16;88.73;101652.56;6027511;28;20026;-67
2022/06/14 02:02:38;;;;;;;5.15;1.65;;;;;;;9.01;87.03;101658.16;6026079;28;20133;-67
2022/06/14 02:05:34;;;;;;;6.60;1.77;;;;;;;9.07;87.67;101650.63;6026182;28;20030;-66
2022/06/14 02:08:34;;;;;;;5.18;1.50;;;;;;;9.39;88.49;101641.13;6023769;28;20038;-67
2022/06/14 02:11:34;;;;;;;8.55;2.20;;;;;;;9.49;86.06;101635.97;6021891;28;20044;-65
2022/06/14 02:14:37;;;;;;;5.57;1.70;;;;;;;9.15;85.75;101636.81;6013841;28;20129;-66
2022/06/14 02:17:42;;;;;;;6.38;1.63;;;;;;;9.45;87.37;101630.09;6025410;28;20069;-66
2022/06/14 02:20:50;;;;;;;3.28;1.50;;;;;;;8.90;87.22;101633.34;6024265;28;20068;-66
2022/06/14 02:23:49;;;;;;;6.88;1.80;;;;;;;8.75;87.56;101623.88;6028027;28;20512;-66
2022/06/14 02:27:21;;;;;;;7.70;1.83;;;;;;;8.43;88.20;101637.72;6025257;28;20450;-65
2022/06/14 02:30:17;;;;;;;;;;;;;;;8.22;89.24;101650.66;6018530;28;20482;-66
2022/06/14 02:33:40;;;;;;;7.22;2.20;;;;;;;8.10;90.03;101651.53;6038697;28;19948;-66
2022/06/14 02:36:43;;;;;;;4.57;2.05;;;;;;;8.48;90.64;101646.19;6021577;28;20042;-65
2022/06/14 02:39:52;;;;;;;4.90;1.88;;;;;;;8.95;91.27;101635.66;6026681;28;20544;-66
2022/06/14 02:42:54;;;;;;;8.15;2.63;;;;;;;8.46;89.72;101648.09;6021666;28;20113;-66
2022/06/14 02:45:57;;;;;;;9.98;2.20;;;;;;;8.03;89.44;101656.38;6025366;28;20121;-66
2022/06/14 02:48:57;;;;;;;3.97;1.70;;;;;;;7.90;90.93;101662.59;6014665;28;20034;-66
2022/06/14 02:51:56;;;;;;;5.15;1.80;;;;;;;7.68;91.28;101656.16;6022997;28;20037;-66
2022/06/14 02:54:56;;;;;;;6.47;2.15;;;;;;;8.32;92.46;101649.91;6024833;28;20398;-66
2022/06/14 02:57:56;;;;;;;7.68;2.28;;;;;;;8.25;91.73;101655.72;6023485;28;20058;-65
2022/06/14 03:01:02;;;;;;;4.97;2.22;;;;;;;8.38;91.49;101649.50;6028504;28;20497;-65
2022/06/14 03:04:01;;;;;;;4.93;1.67;;;;;;;8.47;90.66;101655.06;6037367;28;20066;-65
2022/06/14 03:07:19;;;;;;;4.70;1.80;;;;;;;8.58;90.64;101660.44;6017914;28;20033;-66
2022/06/14 03:10:15;;;;;;;5.00;1.98;;;;;;;8.66;91.10;101644.88;6021141;28;20486;-66
2022/06/14 03:13:30;;;;;;;6.15;2.22;;;;;;;8.94;90.42;101648.03;6025957;28;20026;-66
2022/06/14 03:16:36;;;;;;;6.80;2.30;;;;;;;9.10;90.14;101654.84;6023308;28;20057;-66
2022/06/14 03:19:39;;;;;;;6.72;1.80;;;;;;;8.83;88.65;101642.66;6025143;28;20081;-66
2022/06/14 03:23:06;;;;;;;9.25;2.00;;;;;;;8.95;89.77;101656.81;6039657;28;20085;-65
2022/06/14 03:26:13;;;;;;;7.28;1.73;;;;;;;8.72;90.24;101660.31;6028100;28;20410;-66
2022/06/14 03:29:22;;;;;;;4.85;2.30;;;;;;;8.65;89.79;101659.03;6038504;28;20041;-65
2022/06/14 03:32:32;;;;;;;6.40;2.25;;;;;;;8.62;91.17;101665.38;6026848;28;20027;-66
2022/06/14 03:35:33;;;;;;;3.95;1.80;;;;;;;8.90;91.37;101649.22;6030009;28;20059;-66
2022/06/14 03:38:46;;;;;;;9.48;1.95;;;;;;;8.85;90.47;101640.78;6044656;28;20073;-65
2022/06/14 03:41:45;;;;;;;5.35;1.90;;;;;;;8.90;90.75;101658.94;6025956;28;20062;-66
2022/06/14 03:44:41;;;;;;;5.18;1.88;;;;;;;9.01;90.95;101655.53;6029161;28;20042;-65
2022/06/14 03:47:36;;;;;;;6.00;2.30;;;;;;;9.12;90.85;101664.34;6020875;28;20113;-66
2022/06/14 03:50:43;;;;;;;7.55;2.10;;;;;;;9.11;90.39;101669.75;6019635;28;20049;-66
2022/06/14 03:54:06;;;;;;;5.53;1.95;;;;;;;9.27;90.59;101660.56;6019246;28;20062;-65
2022/06/14 03:57:20;;;;;;;3.95;2.08;;;;;;;9.46;89.68;101660.88;6018936;28;20546;-66
2022/06/14 04:00:42;;;;;;;5.93;2.30;;;;;;;9.43;89.45;101657.63;6028410;28;20598;-65
2022/06/14 04:03:56;;;;;;;12.90;4.05;;;;;;;9.64;89.38;101676.34;6025425;28;20042;-65
2022/06/14 04:06:54;;;;;;;;;;;;;;;9.65;88.77;101678.03;6027414;28;20034;-66
2022/06/14 04:10:23;;;;;;;7.53;2.28;;;;;;;9.65;88.51;101667.44;6029414;28;20399;-66
2022/06/14 04:13:36;;;;;;;3.53;1.77;;;;;;;9.74;88.04;101661.44;6029754;28;20118;-66
2022/06/14 04:16:54;;;;;;;5.50;1.70;;;;;;;9.88;87.81;101677.97;6022434;28;20066;-66
2022/06/14 04:20:07;;;;;;;6.82;2.20;;;;;;;10.21;87.25;101673.69;6029314;28;20034;-65
2022/06/14 04:23:13;;;;;;;7.00;2.00;;;;;;;10.56;86.78;101667.28;6026883;28;20045;-66
2022/06/14 04:26:35;;;;;;;8.07;1.80;;;;;;;10.77;85.42;101662.06;6028211;28;20473;-66
2022/06/14 04:30:06;;;;;;;7.20;1.77;;;;;;;10.98;84.14;101664.81;6026394;28;20038;-66
2022/06/14 04:33:28;;;;;;;5.32;1.98;;;;;;;10.91;83.37;101661.78;6003076;28;20050;-66
2022/06/14 04:36:28;;;;;;;7.25;1.95;;;;;;;11.32;83.45;101658.38;6027865;28;20521;-66
2022/06/14 04:39:41;;;;;;;5.22;1.70;;;;;;;11.12;82.64;101653.88;6021549;28;20046;-65
2022/06/14 04:42:54;;;;;;;6.68;2.22;;;;;;;11.07;83.04;101666.69;6020661;28;20050;-66
2022/06/14 04:45:57;;;;;;;5.35;1.90;;;;;;;11.38;82.25;101665.00;6023204;28;20038;-66
2022/06/14 04:49:02;;;;;;;6.25;1.80;;;;;;;11.56;81.36;101666.94;6028716;28;20053;-65
2022/06/14 04:52:12;;;;;;;4.07;1.55;;;;;;;11.44;80.85;101657.34;6020088;28;20095;-66
2022/06/14 04:55:21;;;;;;;6.72;1.98;;;;;;;11.52;80.89;101662.88;6026043;28;20394;-66
2022/06/14 04:58:37;;;;;;;4.75;2.00;;;;;;;11.44;79.73;101660.00;6039382;28;20045;-66
2022/06/14 05:01:36;;;;;;;7.63;1.55;;;;;;;11.60;80.99;101665.75;6021323;28;20030;-65
2022/06/14 05:04:36;;;;;;;6.80;1.90;;;;;;;11.78;80.96;101679.31;6022073;28;20546;-66
2022/06/14 05:07:40;;;;;;;6.45;1.73;;;;;;;11.71;80.53;101675.50;6029784;28;20397;-65
2022/06/14 05:10:41;;;;;;;4.95;1.92;;;;;;;11.58;81.07;101678.28;6037278;28;20034;-66
2022/06/14 05:13:47;;;;;;;6.95;1.67;;;;;;;11.67;81.54;101676.69;6027302;28;20524;-66
2022/06/14 05:16:50;;;;;;;6.90;2.20;;;;;;;12.14;79.04;101686.81;6024729;28;20041;-66
2022/06/14 05:19:55;;;;;;;5.50;2.00;;;;;;;12.36;79.92;101680.47;6017937;28;20027;-65
2022/06/14 05:22:58;;;;;;;6.97;1.90;;;;;;;12.15;79.19;101682.34;6026100;28;20126;-66
2022/06/14 05:26:04;;;;;;;5.43;1.90;;;;;;;12.42;78.87;101679.91;6019230;28;20045;-66
2022/06/14 05:29:25;;;;;;;5.65;1.65;;;;;;;12.69;79.02;101688.13;6026001;28;20045;-65
2022/06/14 05:32:30;;;;;;;5.65;1.60;;;;;;;12.81;78.08;101675.56;6023807;28;20038;-67
2022/06/14 05:35:31;;;;;;;6.88;1.88;;;;;;;13.13;77.17;101686.03;6025537;28;20073;-65
2022/06/14 05:38:37;;;;;;;2.90;1.35;;;;;;;13.00;77.21;101691.56;6042556;28;20042;-66
2022/06/14 05:41:41;;;;;;;4.65;1.77;;;;;;;13.19;75.40;101690.78;6025670;28;20062;-66
2022/06/14 05:44:41;;;;;;;4.72;1.80;;;;;;;13.13;77.59;101689.50;6026458;28;20061;-66
2022/06/14 05:47:40;;;;;;;5.63;1.65;;;;;;;13.20;76.35;101689.81;6026754;28;20034;-67
2022/06/14 05:50:40;;;;;;;7.07;1.80;;;;;;;13.38;76.23;101688.13;6028945;28;20536;-66
2022/06/14 05:53:44;;;;;;;3.45;1.50;;;;;;;14.25;73.45;101676.31;6037116;28;20038;-66
2022/06/14 05:56:47;;;;;;;5.10;1.70;;;;;;;14.70;70.09;101681.78;6031990;28;20038;-66
2022/06/14 05:59:49;;;;;;;9.60;1.70;;;;;;;15.68;67.76;101695.16;6026985;28;20045;-66
2022/06/14 06:02:52;;;;;;;4.10;1.60;;;;;;;15.39;66.99;101690.03;6025275;28;20034;-66
2022/06/14 06:05:51;;;;;;;7.05;1.73;;;;;;;14.94;68.08;101690.06;6026056;28;20057;-65
2022/06/14 06:08:50;;;;;;;9.55;1.52;;;;;;;14.62;69.48;101687.03;6026674;28;20053;-66
2022/06/14 06:12:09;;;;;;;4.63;1.58;;;;;;;14.46;69.00;101692.16;6024469;28;20117;-66
2022/06/14 06:15:15;;;;;;;5.78;1.67;;;;;;;14.22;70.66;101688.13;6023985;28;20034;-66
2022/06/14 06:18:13;;;;;;;;;;;;;;;14.11;71.74;101706.13;6014120;28;20511;-66
2022/06/14 06:21:14;;;;;;;4.85;1.73;;;;;;;13.92;72.26;101711.50;6025989;28;19917;-66
2022/06/14 06:24:16;;;;;;;5.15;1.90;;;;;;;13.73;73.73;101709.72;6016215;28;20042;-65
2022/06/14 06:27:12;;;;;;;5.80;2.15;;;;;;;13.50;75.06;101705.66;6027604;28;20037;-65
2022/06/14 06:30:13;;;;;;;6.13;1.60;;;;;;;13.75;75.30;101705.09;6038464;28;20038;-66
2022/06/14 06:33:10;;;;;;;5.13;1.60;;;;;;;14.12;72.76;101713.16;6030666;28;20045;-66
2022/06/14 06:36:08;;;;;;;6.40;1.48;;;;;;;14.37;70.41;101712.56;6028732;28;20030;-66
2022/06/14 06:39:28;;;;;;;4.60;1.70;;;;;;;14.97;68.84;101713.81;6027798;28;20038;-66
2022/06/14 06:42:30;;;;;;;5.15;1.77;;;;;;;15.47;67.67;101704.34;6023215;28;20050;-66
2022/06/14 06:45:29;;;;;;;9.50;2.42;;;;;;;15.66;66.90;101706.00;6026537;28;20030;-67
2022/06/14 06:48:37;;;;;;;8.40;2.65;;;;;;;15.76;65.46;101713.94;6049649;28;20045;-65
2022/06/14 06:51:39;;;;;;;8.60;1.70;;;;;;;16.07;62.70;101712.50;6031043;28;20030;-66
2022/06/14 06:54:40;;;;;;;7.65;1.80;;;;;;;16.44;60.67;101707.69;6024678;28;20105;-65
2022/06/14 06:57:37;;;;;;;7.68;2.70;;;;;;;16.85;62.10;101697.22;6023634;28;20041;-66
2022/06/14 07:00:34;;;;;;;5.00;1.60;;;;;;;17.00;60.69;101707.13;6021520;28;20040;-66
2022/06/14 07:03:45;;;;;;;4.97;1.85;;;;;;;17.04;60.33;101707.66;6014513;28;20041;-65
2022/06/14 07:06:53;;;;;;;6.05;1.83;;;;;;;16.99;60.16;101701.91;6015395;28;20077;-66
2022/06/14 07:09:55;;;;;;;5.07;1.55;;;;;;;16.47;60.77;101704.69;6014261;28;20510;-66
2022/06/14 07:13:24;;;;;;;15.57;5.00;;;;;;;16.51;61.64;101710.56;6025402;28;20038;-66
2022/06/14 07:16:35;;;;;;;7.70;1.95;;;;;;;16.64;62.02;101705.66;6013742;28;20037;-66
2022/06/14 07:19:41;;;;;;;5.88;1.73;;;;;;;16.50;60.06;101706.22;6027948;28;20097;-66
2022/06/14 07:22:44;;;;;;;5.53;1.73;;;;;;;16.59;59.30;101705.28;6025251;28;20080;-66
2022/06/14 07:25:59;;;;;;;4.55;1.33;;;;;;;16.99;59.22;101697.41;6024339;28;20064;-66
2022/06/14 07:29:03;;;;;;;8.02;1.80;;;;;;;17.51;56.79;101695.31;6024145;28;20053;-67
2022/06/14 07:32:03;;;;;;;3.72;1.65;;;;;;;17.63;55.75;101687.81;6023225;28;20045;-65
2022/06/14 07:35:00;;;;;;;4.88;1.27;;;;;;;17.05;55.95;101693.22;6037833;28;20113;-65
2022/06/14 07:38:17;;;;;;;3.80;1.30;;;;;;;17.28;56.27;101699.66;6024565;28;20030;-67
2022/06/14 07:41:16;;;;;;;4.43;1.20;;;;;;;17.13;57.14;101693.25;6018089;28;20113;-66
2022/06/14 07:44:20;;;;;;;2.90;1.20;;;;;;;17.73;54.77;101689.31;6021714;28;20401;-66
2022/06/14 07:47:26;;;;;;;5.43;1.30;;;;;;;17.89;54.58;101690.28;6024022;28;20045;-66
2022/06/14 07:50:35;;;;;;;3.38;1.50;;;;;;;17.60;54.11;101688.97;6023508;28;20470;-66
2022/06/14 07:53:42;;;;;;;6.93;1.40;;;;;;;18.56;53.57;101687.16;6024286;28;20038;-66
2022/06/14 07:56:47;;;;;;;3.30;1.38;;;;;;;18.55;52.11;101690.00;6035706;28;20035;-66
2022/06/14 08:03:30;;;;;;;5.32;1.10;;;;;;;16.91;55.66;101691.16;6025178;28;20130;-65
2022/06/14 08:06:31;;;;;;;4.57;1.48;;;;;;;17.04;56.98;101699.59;6020245;28;20042;-66
2022/06/14 08:09:38;;;;;;;5.10;1.60;;;;;;;17.25;55.25;101698.16;6016425;28;20363;-65
2022/06/14 08:12:40;;;;;;;4.43;1.30;;;;;;;17.16;54.94;101700.97;6027470;28;20085;-65
2022/06/14 08:15:38;;;;;;;5.55;1.55;;;;;;;16.84;55.63;101685.66;6023354;28;20402;-67
2022/06/14 08:18:40;;;;;;;5.88;1.38;;;;;;;16.46;57.90;101699.50;6022279;28;20041;-66
2022/06/14 08:21:43;;;;;;;5.15;1.20;;;;;;;16.75;58.24;101708.03;6022895;28;20042;-66
2022/06/14 08:24:42;;;;;;;6.82;1.40;;;;;;;17.19;54.74;101696.13;6028242;28;20030;-67
2022/06/14 08:27:47;;;;;;;6.45;1.70;;;;;;;16.69;54.94;101681.88;6028139;28;20040;-66
2022/06/14 08:30:52;;;;;;;4.28;1.40;;;;;;;16.73;56.31;101701.16;6027655;28;20537;-66
2022/06/14 08:34:29;;;;;;;4.45;1.30;;;;;;;17.84;53.85;101691.66;6047847;28;20045;-66
2022/06/14 08:37:36;;;;;;;6.40;1.52;;;;;;;17.87;53.46;101697.69;6027676;28;20045;-66
2022/06/14 08:40:46;;;;;;;3.25;1.25;;;;;;;17.14;55.24;101694.94;6016125;28;20066;-66
2022/06/14 08:43:44;;;;;;;7.85;1.63;;;;;;;16.81;55.10;101703.88;6028021;28;20034;-66
2022/06/14 08:47:13;;;;;;;3.78;1.23;;;;;;;16.79;54.82;101692.50;6030791;28;20471;-66
2022/06/14 08:50:29;;;;;;;3.25;1.35;;;;;;;17.51;56.33;101699.81;6028366;28;20030;-66
2022/06/14 08:53:45;;;;;;;4.68;1.80;;;;;;;18.26;51.20;101688.69;6035882;28;20060;-66
2022/06/14 08:57:02;;;;;;;4.00;1.27;;;;;;;18.33;51.10;101702.28;6044307;28;20052;-66
2022/06/14 09:00:07;;;;;;;5.57;1.88;;;;;;;18.41;50.17;101694.22;6052108;28;20038;-67
2022/06/14 09:03:33;;;;;;;4.05;1.42;;;;;;;18.23;51.17;101696.28;6039426;28;20497;-66
2022/06/14 09:07:04;;;;;;;7.53;1.73;;;;;;;18.10;50.86;101691.44;6016421;28;20026;-66
2022/06/14 09:10:20;;;;;;;4.20;1.50;;;;;;;18.34;50.51;101690.56;6028119;28;20041;-67
2022/06/14 09:13:21;;;;;;;4.95;1.33;;;;;;;18.93;50.03;101689.16;6027299;28;20115;-66
2022/06/14 09:16:30;;;;;;;7.40;1.40;;;;;;;18.66;48.77;101687.78;6038457;28;20054;-66
2022/06/14 09:20:13;;;;;;;4.07;1.25;;;;;;;18.25;49.67;101689.72;6015877;28;20418;-66
2022/06/14 09:23:21;;;;;;;5.95;1.40;;;;;;;18.02;49.96;101688.75;6016856;28;20137;-65
2022/06/14 09:26:26;;;;;;;5.28;1.27;;;;;;;17.68;51.91;101701.56;6027581;28;20481;-66
2022/06/14 09:29:40;;;;;;;4.90;1.50;;;;;;;17.09;52.79;101700.75;6027554;28;20038;-66
2022/06/14 09:33:09;;;;;;;4.35;1.40;;;;;;;17.38;52.99;101699.47;6026220;28;20108;-66
2022/06/14 09:36:10;;;;;;;3.38;1.27;;;;;;;17.36;52.69;101691.63;6050943;28;20040;-66
2022/06/14 09:39:38;;;;;;;6.28;1.83;;;;;;;17.02;52.89;101693.56;6027344;28;20038;-65
2022/06/14 09:42:58;;;;;;;10.77;1.90;;;;;;;17.76;52.04;101682.75;6026988;28;20049;-67
2022/06/14 09:46:24;;;;;;;4.97;1.25;;;;;;;17.96;51.36;101689.47;6029736;28;20088;-66
2022/06/14 09:50:01;;;;;;;6.03;1.58;;;;;;;17.75;52.07;101695.34;6026679;28;20578;-66
2022/06/14 09:53:21;;;;;;;2.97;1.35;;;;;;;17.73;52.77;101700.03;6030587;28;20043;-66
2022/06/14 09:56:32;;;;;;;5.05;1.55;;;;;;;18.00;51.57;101690.78;6034052;28;20041;-66
2022/06/14 09:59:48;;;;;;;4.10;1.20;;;;;;;18.89;49.29;101688.66;6030499;28;20422;-67
2022/06/14 10:03:23;;;;;;;3.97;1.35;;;;;;;18.80;48.83;101689.72;6024224;28;20097;-66
2022/06/14 10:06:48;;;;;;;4.72;1.77;;;;;;;18.29;48.97;101685.69;6019926;28;20030;-66
2022/06/14 10:10:04;;;;;;;7.07;1.58;;;;;;;17.64;51.52;101694.81;6014411;28;20121;-66
2022/06/14 10:13:05;;;;;;;2.63;1.50;;;;;;;17.60;51.64;101690.81;6018366;28;20430;-66
2022/06/14 10:16:18;;;;;;;6.07;1.98;;;;;;;17.51;51.10;101686.41;6026083;28;20054;-66
2022/06/14 10:19:29;;;;;;;3.40;1.50;;;;;;;17.95;51.18;101685.09;6026071;28;20482;-66
2022/06/14 10:22:51;;;;;;;4.10;1.50;;;;;;;18.31;47.03;101672.94;6021908;28;20137;-66
2022/06/14 10:29:38;;;;;;;4.95;1.70;;;;;;;18.47;48.98;101677.41;6025288;28;20509;-66
2022/06/14 10:32:55;;;;;;;4.60;1.77;;;;;;;18.40;51.16;101676.41;6031896;28;20061;-66
2022/06/14 10:35:58;;;;;;;5.18;1.83;;;;;;;18.50;50.29;101670.88;6017273;28;20042;-66
2022/06/14 10:39:08;;;;;;;5.28;1.48;;;;;;;19.09;47.24;101677.44;6013498;28;20065;-67
2022/06/14 10:42:25;;;;;;;4.43;1.42;;;;;;;19.73;44.47;101674.28;6051660;28;20044;-66
2022/06/14 10:45:30;;;;;;;4.60;1.52;;;;;;;19.51;46.59;101667.09;6024868;28;20077;-67
2022/06/14 10:49:00;;;;;;;3.45;1.50;;;;;;;19.24;46.15;101670.31;6047783;28;20060;-66
2022/06/14 10:52:25;;;;;;;6.38;1.40;;;;;;;19.26;46.42;101679.03;5943783;28;20549;-67
2022/06/14 10:55:37;;;;;;;5.25;1.85;;;;;;;19.13;46.27;101668.03;6021330;28;20030;-67
2022/06/14 10:59:09;;;;;;;3.88;1.50;;;;;;;19.92;44.99;101671.06;6030150;28;20035;-66
2022/06/14 11:02:33;;;;;;;4.15;1.80;;;;;;;20.75;44.47;101660.06;6024113;28;20452;-67
2022/06/14 11:06:00;;;;;;;6.78;1.73;;;;;;;19.71;46.05;101662.88;6026433;28;20371;-66
2022/06/14 11:09:19;;;;;;;6.47;2.03;;;;;;;19.30;46.90;101666.88;6010910;28;20046;-66
2022/06/14 11:12:47;;;;;;;6.15;2.42;;;;;;;18.91;47.16;101678.59;6014082;28;20397;-66
2022/06/14 11:15:50;;;;;;;4.22;1.90;;;;;;;18.70;48.93;101661.38;6019310;28;20137;-66
2022/06/14 11:22:43;;;;;;;4.50;1.67;;;;;;;18.93;47.71;101659.56;6021620;28;20496;-66
2022/06/14 11:25:48;;;;;;;11.98;2.40;;;;;;;19.44;47.01;101672.34;6032798;28;20540;-66
2022/06/14 11:28:50;;;;;;;5.57;1.98;;;;;;;19.88;46.86;101668.94;6023601;28;20048;-66
2022/06/14 11:31:53;;;;;;;5.55;2.00;;;;;;;19.54;46.71;101661.38;6021940;28;20429;-67
2022/06/14 11:34:51;;;;;;;6.20;1.80;;;;;;;19.88;47.08;101664.41;6016156;28;20046;-67
2022/06/14 11:38:10;;;;;;;8.20;2.50;;;;;;;19.24;46.88;101660.38;6037292;28;20092;-66
2022/06/14 11:41:07;;;;;;;5.50;2.25;;;;;;;19.49;45.60;101651.13;6019232;28;20118;-66
2022/06/14 11:44:34;;;;;;;5.40;1.90;;;;;;;19.86;45.55;101657.53;6022694;28;20501;-66
2022/06/14 11:47:36;;;;;;;4.97;2.63;;;;;;;20.08;47.45;101640.47;6046073;28;20125;-67
2022/06/14 11:50:50;;;;;;;8.35;2.67;;;;;;;20.26;46.44;101653.59;6027633;28;20038;-66
2022/06/14 11:54:16;;;;;;;9.05;2.40;;;;;;;20.12;45.02;101649.84;6035756;28;20029;-67
2022/06/14 11:57:26;;;;;;;4.38;2.10;;;;;;;20.20;44.67;101653.28;6030176;28;20402;-67
2022/06/14 12:00:24;;;;;;;3.38;2.00;;;;;;;20.25;45.63;101649.25;6029259;28;20073;-66
2022/06/14 12:03:42;;;;;;;7.95;3.10;;;;;;;20.26;43.87;101640.13;6030283;28;20034;-67
2022/06/14 12:06:44;;;;;;;4.75;1.98;;;;;;;20.71;43.60;101637.16;6018622;28;20044;-67
2022/06/14 12:10:07;;;;;;;5.85;2.75;;;;;;;21.19;41.16;101623.03;6039538;28;20496;-66
2022/06/14 12:13:11;;;;;;;5.60;2.22;;;;;;;21.67;40.65;101631.31;6029816;28;20036;-66
2022/06/14 12:16:20;;;;;;;5.40;2.33;;;;;;;21.24;41.93;101635.94;6022100;28;20037;-66
2022/06/14 12:19:24;;;;;;;6.75;1.92;;;;;;;21.02;42.00;101631.50;6027823;28;20393;-65
2022/06/14 12:22:28;;;;;;;7.40;2.60;;;;;;;20.52;43.15;101633.22;6027040;28;20473;-65
2022/06/14 12:29:17;;;;;;;3.40;1.80;;;;;;;20.14;45.30;101631.63;6042084;28;20042;-66
2022/06/14 12:32:15;;;;;;;7.80;1.90;;;;;;;19.87;44.60;101638.50;6031682;28;20088;-66
2022/06/14 12:35:17;;;;;;;8.77;1.90;;;;;;;19.30;46.72;101634.59;6031844;28;20069;-65
2022/06/14 12:38:19;;;;;;;6.07;1.85;;;;;;;19.65;47.18;101622.41;6035493;28;20053;-65
2022/06/14 12:41:27;;;;;;;5.35;2.03;;;;;;;19.83;45.04;101623.75;6052280;28;20053;-65
2022/06/14 12:44:33;;;;;;;9.63;2.38;;;;;;;20.57;45.27;101617.31;6048105;28;20117;-65
2022/06/14 12:48:03;;;;;;;5.35;1.75;;;;;;;21.21;41.23;101617.41;6052629;28;20030;-64
2022/06/14 12:51:18;;;;;;;4.25;2.08;;;;;;;21.57;41.46;101604.66;6049123;28;20069;-65
2022/06/14 12:54:18;;;;;;;4.43;1.98;;;;;;;21.20;41.87;101613.88;6067869;28;20552;-65
2022/06/14 12:57:20;;;;;;;4.53;2.15;;;;;;;21.01;41.77;101603.69;6050284;28;20036;-65
2022/06/14 13:00:25;;;;;;;5.70;1.70;;;;;;;21.54;39.94;101601.50;6049509;28;20810;-65
2022/06/14 13:03:45;;;;;;;5.03;1.70;;;;;;;21.70;39.55;101583.16;6027416;28;20597;-65
2022/06/14 13:06:54;;;;;;;9.20;2.38;;;;;;;21.35;39.50;101587.66;6029173;28;20045;-65
2022/06/14 13:10:08;;;;;;;4.35;1.60;;;;;;;22.35;41.76;101588.13;6027356;28;20509;-64
2022/06/14 13:13:22;;;;;;;6.07;2.00;;;;;;;22.61;41.04;101582.00;6027295;28;20478;-65
2022/06/14 13:16:32;;;;;;;4.38;1.80;;;;;;;22.59;40.78;101585.91;6026363;28;20038;-66
2022/06/14 13:19:39;;;;;;;3.75;1.77;;;;;;;21.90;40.42;101584.13;6028343;28;20363;-66
2022/06/14 13:22:50;;;;;;;;;;;;;;;21.09;42.51;101586.59;6028288;28;20042;-66
2022/06/14 13:26:22;;;;;;;4.88;1.80;;;;;;;21.00;42.87;101585.88;6028046;28;19914;-66
2022/06/14 13:30:03;;;;;;;5.30;1.50;;;;;;;21.23;39.76;101586.50;6026428;28;20057;-66
2022/06/14 13:33:17;;;;;;;4.95;1.90;;;;;;;21.86;40.30;101579.31;6039863;28;20042;-66
2022/06/14 13:36:40;;;;;;;6.15;1.92;;;;;;;21.97;39.77;101584.19;6046625;28;20038;-66
2022/06/14 13:39:49;;;;;;;4.60;1.80;;;;;;;21.83;39.46;101574.28;6039951;28;20034;-66
2022/06/14 13:42:56;;;;;;;5.82;1.80;;;;;;;22.24;39.41;101577.88;6027070;28;20168;-65
2022/06/14 13:46:16;;;;;;;4.00;1.83;;;;;;;21.99;40.14;101552.38;6026712;28;20034;-65
2022/06/14 13:49:15;;;;;;;4.55;1.50;;;;;;;22.40;40.96;101569.41;6026413;28;20116;-66
2022/06/14 13:52:22;;;;;;;;;;;;;;;23.23;37.78;101564.63;6027327;28;20092;-66
2022/06/14 13:55:31;;;;;;;4.55;1.58;;;;;;;23.22;37.58;101563.78;6042478;28;19916;-66
2022/06/14 13:58:47;;;;;;;3.53;1.63;;;;;;;23.43;35.92;101552.78;6039105;28;20085;-66
2022/06/14 14:02:14;;;;;;;3.00;1.40;;;;;;;23.10;36.55;101560.88;6050256;28;20080;-66
2022/06/14 14:05:34;;;;;;;3.22;1.73;;;;;;;22.41;36.52;101560.28;6029649;28;20046;-66
2022/06/14 14:08:46;;;;;;;4.35;1.70;;;;;;;22.39;38.02;101548.81;6014093;28;20043;-66
2022/06/14 14:11:58;;;;;;;7.28;2.00;;;;;;;23.06;38.25;101543.38;6020401;28;20474;-65
2022/06/14 14:15:03;;;;;;;7.68;2.20;;;;;;;23.66;36.78;101534.22;6027276;28;20065;-66
2022/06/14 14:18:07;;;;;;;10.07;2.20;;;;;;;24.46;34.26;101541.00;6026770;28;20030;-66
2022/06/14 14:21:21;;;;;;;5.75;1.98;;;;;;;24.18;34.38;101533.25;6021465;28;20088;-67
2022/06/14 14:24:36;;;;;;;3.20;1.83;;;;;;;23.81;35.30;101530.44;6006077;28;20043;-66
2022/06/14 14:27:59;;;;;;;6.88;1.95;;;;;;;24.83;31.84;101525.81;6013822;28;20466;-67
2022/06/14 14:31:07;;;;;;;7.35;2.40;;;;;;;22.57;35.32;101514.97;6015253;28;20445;-66
2022/06/14 14:34:11;;;;;;;5.55;1.80;;;;;;;23.62;36.10;101516.69;6025046;28;20034;-66
2022/06/14 14:37:17;;;;;;;8.27;2.10;;;;;;;24.74;33.27;101508.94;6027391;28;20038;-66
2022/06/14 14:40:26;;;;;;;6.05;1.85;;;;;;;25.00;33.56;101493.53;6023179;28;20069;-67
2022/06/14 14:43:22;;;;;;;4.78;2.00;;;;;;;24.74;34.01;101499.94;6018031;28;20062;-66
2022/06/14 14:46:25;;;;;;;6.03;1.98;;;;;;;24.62;34.35;101490.88;6021601;28;20038;-66
2022/06/14 14:49:35;;;;;;;7.28;2.00;;;;;;;24.63;34.32;101501.47;6024633;28;20041;-66
2022/06/14 14:52:49;;;;;;;4.75;1.90;;;;;;;24.29;33.64;101501.91;6021023;28;20449;-66
2022/06/14 14:55:59;;;;;;;6.22;1.75;;;;;;;24.57;33.63;101488.78;6024465;28;20432;-66
2022/06/14 14:59:23;;;;;;;4.32;1.92;;;;;;;25.79;30.15;101488.19;6032121;28;20046;-66
2022/06/14 15:05:57;;;;;;;5.47;1.90;;;;;;;24.90;33.29;101480.44;6024968;28;20031;-67